Time;durP1;ratioP1;P1;durP2;ratioP2;P2;SDS_P1;SDS_P2;PMS_P1;PMS_P2;Temp;Humidity;BMP_temperature;BMP_pressure;BME280_temperature;BME280_humidity;BME280_pressure;Samples;Min_cycle;Max_cycle;Signal;HPM_P1;HPM_P2
2023/04/27 00:02:41;;;;;;;2.80;0.95;;;;;;;19.41;31.86;101935.28;16113708;19;133343;-38
2023/04/27 00:08:03;;;;;;;2.25;1.15;;;;;;;19.38;31.91;101945.78;16113670;19;130441;-39
2023/04/27 00:13:25;;;;;;;3.80;0.73;;;;;;;19.34;31.52;101941.75;16111626;19;131692;-39
2023/04/27 00:18:47;;;;;;;2.83;0.73;;;;;;;19.32;31.71;101949.44;16116014;19;130604;-39
2023/04/27 00:24:09;;;;;;;1.35;0.82;;;;;;;19.28;31.40;101937.09;16109331;19;130580;-38
2023/04/27 00:29:31;;;;;;;1.35;0.75;;;;;;;19.25;31.63;101947.81;16110407;19;130854;-38
2023/04/27 00:34:53;;;;;;;1.60;0.80;;;;;;;19.21;31.60;101941.84;16110895;19;129943;-39
2023/04/27 00:40:15;;;;;;;2.38;0.80;;;;;;;19.18;31.46;101937.56;16122115;19;130651;-38
2023/04/27 00:45:42;;;;;;;2.00;0.90;;;;;;;19.17;31.76;101941.41;16124719;19;130785;-38
2023/04/27 00:51:04;;;;;;;1.67;0.90;;;;;;;19.14;31.35;101941.03;16121899;19;129620;-39
2023/04/27 00:56:26;;;;;;;3.17;0.90;;;;;;;19.11;31.96;101938.69;16125262;19;132066;-38
2023/04/27 01:01:48;;;;;;;1.20;0.50;;;;;;;19.08;32.04;101953.88;16129620;19;132569;-38
2023/04/27 01:07:10;;;;;;;1.90;0.70;;;;;;;19.05;32.02;101946.84;16129118;19;129776;-38
2023/04/27 01:12:32;;;;;;;1.33;0.80;;;;;;;19.04;32.01;101934.06;16124121;19;130791;-38
2023/04/27 01:17:58;;;;;;;2.53;1.00;;;;;;;19.02;31.74;101927.88;16122186;19;129249;-38
2023/04/27 01:23:20;;;;;;;1.02;0.50;;;;;;;19.00;31.91;101935.56;16120202;19;131309;-38
2023/04/27 01:28:42;;;;;;;0.90;0.50;;;;;;;18.97;31.93;101933.25;16122790;19;129997;-38
2023/04/27 01:34:04;;;;;;;2.58;0.63;;;;;;;18.95;32.22;101926.22;16121635;19;130166;-38
2023/04/27 01:39:26;;;;;;;1.92;0.57;;;;;;;18.91;31.92;101923.06;16124274;19;130216;-38
2023/04/27 01:44:48;;;;;;;0.85;0.60;;;;;;;18.89;32.10;101925.19;16120703;19;130050;-39
2023/04/27 01:50:10;;;;;;;1.33;0.60;;;;;;;18.89;31.56;101916.88;16122359;19;130073;-38
2023/04/27 01:55:32;;;;;;;1.02;0.68;;;;;;;18.86;31.60;101914.56;16123861;19;132686;-38
2023/04/27 02:00:54;;;;;;;1.38;0.60;;;;;;;18.83;31.99;101917.78;16113487;19;131336;-37
2023/04/27 02:06:16;;;;;;;1.17;0.60;;;;;;;18.82;32.12;101918.88;16120801;19;132117;-38
2023/04/27 02:11:37;;;;;;;0.90;0.60;;;;;;;18.79;32.10;101911.81;16119474;19;130390;-38
2023/04/27 02:17:00;;;;;;;1.25;0.70;;;;;;;18.77;31.99;101894.56;16114868;19;129573;-38
2023/04/27 02:22:22;;;;;;;1.58;0.77;;;;;;;18.77;31.92;101894.56;16120394;19;130533;-38
2023/04/27 02:27:43;;;;;;;3.83;1.05;;;;;;;18.73;31.54;101899.72;16115378;19;131049;-38
2023/04/27 02:33:06;;;;;;;1.40;0.80;;;;;;;18.72;31.74;101900.78;16121789;19;131285;-38
2023/04/27 02:38:29;;;;;;;1.63;0.68;;;;;;;18.69;31.62;101906.78;16118077;19;131082;-39
2023/04/27 02:43:50;;;;;;;1.10;0.85;;;;;;;18.67;31.34;101903.38;16116516;19;131534;-38
2023/04/27 02:49:12;;;;;;;1.42;0.77;;;;;;;18.65;31.65;101904.66;16114247;19;130317;-39
2023/04/27 02:54:35;;;;;;;1.42;0.70;;;;;;;18.64;31.39;101897.44;16118484;19;130292;-38
2023/04/27 02:59:57;;;;;;;1.08;0.90;;;;;;;18.61;31.33;101891.28;16118108;19;132224;-38
2023/04/27 03:05:19;;;;;;;2.17;0.77;;;;;;;18.58;31.72;101907.50;16114911;19;131876;-38
2023/04/27 03:10:41;;;;;;;1.60;0.70;;;;;;;18.58;31.70;101910.28;16120646;19;129450;-38
2023/04/27 03:16:02;;;;;;;1.02;0.60;;;;;;;18.56;31.37;101912.41;16111976;19;129734;-38
2023/04/27 03:21:25;;;;;;;2.92;1.00;;;;;;;18.54;31.73;101909.84;16113013;19;130232;-38
2023/04/27 03:26:47;;;;;;;1.45;0.70;;;;;;;18.53;31.79;101913.69;16116912;19;132669;-38
2023/04/27 03:32:09;;;;;;;1.50;0.70;;;;;;;18.52;31.66;101923.09;16114898;19;129421;-39
2023/04/27 03:37:31;;;;;;;1.25;0.63;;;;;;;18.52;31.90;101922.22;16118379;19;130468;-49
2023/04/27 03:42:53;;;;;;;0.95;0.60;;;;;;;18.51;31.42;101912.22;16121358;19;129491;-38
2023/04/27 03:48:15;;;;;;;2.17;0.60;;;;;;;18.49;31.61;101929.06;16122742;19;129769;-38
2023/04/27 03:53:37;;;;;;;1.33;0.60;;;;;;;18.48;31.45;101924.59;16114192;19;130668;-38
2023/04/27 03:58:59;;;;;;;1.88;0.70;;;;;;;18.47;31.36;101928.44;16109824;19;129834;-38
2023/04/27 04:04:21;;;;;;;2.30;0.73;;;;;;;18.45;31.69;101923.13;16116032;19;131519;-38
2023/04/27 04:09:43;;;;;;;2.28;0.90;;;;;;;18.43;31.63;101922.50;16113480;19;130527;-38
2023/04/27 04:15:06;;;;;;;1.15;0.70;;;;;;;18.43;31.26;101930.81;16128808;19;129785;-38
2023/04/27 04:20:28;;;;;;;1.92;0.88;;;;;;;18.41;31.59;101916.31;16143859;19;130888;-38
2023/04/27 04:25:50;;;;;;;1.13;0.70;;;;;;;18.38;31.72;101919.50;16142293;19;132517;-38
2023/04/27 04:31:13;;;;;;;2.80;0.73;;;;;;;18.36;31.73;101923.56;16136683;19;129804;-38
2023/04/27 04:36:35;;;;;;;2.00;0.80;;;;;;;18.33;31.66;101927.63;16147037;19;129785;-38
2023/04/27 04:41:57;;;;;;;1.95;0.90;;;;;;;18.33;31.59;101938.72;16139463;19;129826;-38
2023/04/27 04:47:19;;;;;;;1.65;0.85;;;;;;;18.31;31.22;101938.06;16142371;19;131917;-38
2023/04/27 04:52:41;;;;;;;1.95;0.80;;;;;;;18.30;31.36;101939.97;16137785;19;130667;-37
2023/04/27 04:58:03;;;;;;;2.25;0.75;;;;;;;18.29;31.27;101945.75;16139685;19;129662;-37
2023/04/27 05:03:24;;;;;;;1.10;0.70;;;;;;;18.28;31.37;101944.88;16139237;19;130122;-38
2023/04/27 05:08:47;;;;;;;0.60;0.60;;;;;;;18.37;31.75;101950.19;16140079;19;131114;-38
2023/04/27 05:14:08;;;;;;;0.73;0.50;;;;;;;18.57;31.18;101958.47;16137905;19;130583;-38
2023/04/27 05:19:30;;;;;;;0.95;0.57;;;;;;;18.85;31.05;101962.75;16140765;19;131473;-38
2023/04/27 05:24:52;;;;;;;3.22;0.77;;;;;;;19.12;30.95;101951.50;16126862;19;129881;-37
2023/04/27 05:30:14;;;;;;;4.50;0.90;;;;;;;19.28;30.57;101959.31;16124475;19;130589;-38
2023/04/27 05:35:36;;;;;;;6.22;1.27;;;;;;;19.40;30.40;101950.25;16123869;19;130090;-38
2023/04/27 05:40:58;;;;;;;3.63;0.98;;;;;;;19.44;30.29;101957.88;16119449;19;131306;-38
2023/04/27 05:46:20;;;;;;;6.47;1.30;;;;;;;19.48;30.35;101963.81;16124733;19;130796;-38
2023/04/27 05:51:43;;;;;;;8.70;1.00;;;;;;;19.51;30.29;101968.94;16120351;19;129803;-38
2023/04/27 05:57:05;;;;;;;8.25;1.02;;;;;;;19.49;30.40;101966.41;16116541;19;131356;-38
2023/04/27 06:02:27;;;;;;;3.95;1.17;;;;;;;19.51;30.29;101963.38;16121397;19;129377;-38
2023/04/27 06:07:49;;;;;;;5.45;1.35;;;;;;;19.53;30.33;101958.47;16125177;19;129902;-38
2023/04/27 06:13:11;;;;;;;3.85;1.20;;;;;;;19.53;29.99;101967.63;16122349;19;134116;-37
2023/04/27 06:18:32;;;;;;;4.93;1.10;;;;;;;19.54;30.28;101957.38;16121052;19;131113;-37
2023/04/27 06:23:54;;;;;;;3.35;1.23;;;;;;;19.53;30.04;101956.50;16121751;19;129554;-38
2023/04/27 06:29:16;;;;;;;5.88;1.27;;;;;;;19.52;29.97;101965.09;16120008;19;130380;-41
2023/04/27 06:34:38;;;;;;;3.13;1.40;;;;;;;19.49;30.16;101960.84;16123781;19;130751;-39
2023/04/27 06:40:00;;;;;;;5.03;1.75;;;;;;;19.49;30.27;101965.53;16123069;19;132467;-37
2023/04/27 06:45:22;;;;;;;4.45;1.70;;;;;;;19.52;30.02;101959.53;16114448;19;130665;-37
2023/04/27 06:50:46;;;;;;;5.28;1.48;;;;;;;19.62;29.46;101959.03;16096793;19;130562;-38
2023/04/27 06:56:10;;;;;;;4.13;1.67;;;;;;;19.77;29.24;101955.88;16110358;19;130876;-38
2023/04/27 07:01:32;;;;;;;4.45;1.60;;;;;;;19.90;29.50;101955.75;16121412;19;131228;-38
2023/04/27 07:06:54;;;;;;;6.25;1.58;;;;;;;20.04;28.82;101966.75;16120740;19;130009;-38
2023/04/27 07:12:16;;;;;;;4.82;1.45;;;;;;;20.14;29.11;101970.66;16120859;19;129577;-38
2023/04/27 07:17:38;;;;;;;5.18;1.80;;;;;;;20.23;29.02;101965.66;16121241;19;129417;-38
2023/04/27 07:23:00;;;;;;;5.43;2.00;;;;;;;20.33;28.83;101948.44;16125208;19;129553;-38
2023/04/27 07:28:22;;;;;;;6.35;2.17;;;;;;;20.36;28.25;101947.13;16116928;19;129672;-38
2023/04/27 07:33:45;;;;;;;7.00;2.13;;;;;;;20.37;28.35;101948.81;16116323;19;129876;-39
2023/04/27 07:39:07;;;;;;;4.55;1.90;;;;;;;20.34;28.15;101950.16;16103326;19;131257;-39
2023/04/27 07:44:29;;;;;;;2.75;1.73;;;;;;;20.31;28.48;101953.38;16101183;19;131543;-39
2023/04/27 07:49:51;;;;;;;4.13;1.67;;;;;;;20.28;28.14;101949.16;16106458;19;132686;-38
2023/04/27 07:55:13;;;;;;;5.22;1.60;;;;;;;20.26;28.36;101953.22;16116250;19;130634;-40
2023/04/27 08:00:36;;;;;;;2.83;1.50;;;;;;;20.22;28.21;101941.72;16114526;19;129601;-38
2023/04/27 08:05:58;;;;;;;4.18;1.80;;;;;;;20.21;28.48;101937.25;16110882;19;130307;-45
2023/04/27 08:11:21;;;;;;;3.05;1.42;;;;;;;20.19;28.36;101942.19;16112511;19;130367;-43
2023/04/27 08:16:43;;;;;;;3.97;2.03;;;;;;;20.15;28.46;101935.41;16111513;19;130093;-40
2023/04/27 08:22:05;;;;;;;9.45;2.45;;;;;;;20.12;28.72;101933.09;16114117;19;129337;-39
2023/04/27 08:27:27;;;;;;;4.03;2.05;;;;;;;20.10;28.32;101932.47;16114767;19;129795;-43
2023/04/27 08:32:49;;;;;;;5.28;2.28;;;;;;;20.09;28.31;101925.22;16111383;19;129619;-39
2023/04/27 08:38:11;;;;;;;8.98;2.63;;;;;;;20.07;28.05;101921.81;16116913;19;134839;-39
2023/04/27 08:43:34;;;;;;;7.78;2.33;;;;;;;20.11;27.97;101923.91;16114813;19;129231;-37
2023/04/27 08:48:56;;;;;;;5.68;2.05;;;;;;;20.21;28.11;101923.34;16115377;19;129585;-38
2023/04/27 08:54:19;;;;;;;6.05;2.00;;;;;;;20.35;27.59;101929.59;16110374;19;130125;-42
2023/04/27 08:59:44;;;;;;;9.18;2.03;;;;;;;20.45;27.58;101916.00;16114135;19;129460;-38
2023/04/27 09:05:14;;;;;;;5.47;2.28;;;;;;;20.54;27.22;101919.31;16124425;19;131061;-38
2023/04/27 09:10:46;;;;;;;5.13;1.60;;;;;;;20.58;26.48;101923.28;16126985;19;131224;-37
2023/04/27 09:16:13;;;;;;;6.25;1.80;;;;;;;20.60;26.45;101926.69;16125455;19;129585;-38
2023/04/27 09:21:35;;;;;;;7.00;1.80;;;;;;;20.59;26.36;101925.00;16127891;19;131504;-37
2023/04/27 09:26:57;;;;;;;4.30;1.60;;;;;;;20.58;26.27;101931.63;16125695;19;129154;-38
2023/04/27 09:32:21;;;;;;;5.03;1.58;;;;;;;20.53;26.30;101909.28;16125677;19;130576;-38
2023/04/27 09:37:43;;;;;;;9.13;1.60;;;;;;;20.46;26.26;101902.94;16126936;19;129046;-37
2023/04/27 09:43:06;;;;;;;4.93;1.65;;;;;;;20.45;26.26;101902.09;16126691;19;129792;-39
2023/04/27 09:48:28;;;;;;;8.15;1.95;;;;;;;20.60;26.15;101904.44;16124619;19;130549;-38
2023/04/27 09:53:57;;;;;;;6.45;1.65;;;;;;;20.85;25.28;101900.69;16126794;19;129357;-38
2023/04/27 09:59:54;;;;;;;5.97;1.40;;;;;;;21.17;24.91;101917.06;16123824;19;129939;-38
2023/04/27 10:05:53;;;;;;;4.88;1.65;;;;;;;21.43;24.81;101906.56;16125393;19;131214;-44
2023/04/27 10:11:18;;;;;;;7.05;1.58;;;;;;;21.57;24.94;101890.53;16124315;19;130937;-38
2023/04/27 10:16:54;;;;;;;6.00;1.80;;;;;;;21.66;24.83;101891.84;16122389;19;129381;-38
2023/04/27 10:22:16;;;;;;;;;;;;;;;21.63;25.11;101883.97;16129619;19;130587;-38
2023/04/27 10:27:40;;;;;;;5.47;2.15;;;;;;;21.63;25.38;101880.34;16123174;19;130540;-38
2023/04/27 10:33:09;;;;;;;12.35;2.47;;;;;;;21.54;25.27;101865.09;16121761;19;129616;-42
2023/04/27 10:38:31;;;;;;;11.75;2.50;;;;;;;21.44;25.46;101860.94;16125434;19;130235;-38
2023/04/27 10:43:53;;;;;;;6.93;1.80;;;;;;;21.33;26.08;101861.78;16123256;19;131140;-38
2023/04/27 10:49:15;;;;;;;8.30;1.90;;;;;;;21.20;25.92;101858.16;16122927;19;128982;-38
2023/04/27 10:54:38;;;;;;;8.27;2.00;;;;;;;21.20;26.06;101848.97;16122091;19;129332;-38
2023/04/27 11:00:00;;;;;;;4.45;1.70;;;;;;;21.22;26.13;101853.22;16119227;19;129667;-38
2023/04/27 11:05:24;;;;;;;3.78;1.65;;;;;;;21.25;25.88;101846.31;16120322;19;129604;-38
2023/04/27 11:10:49;;;;;;;2.15;1.30;;;;;;;21.25;25.71;101840.72;16122344;19;131698;-38
2023/04/27 11:16:11;;;;;;;7.97;1.38;;;;;;;21.23;25.80;101834.59;16124238;19;133600;-38
2023/04/27 11:21:33;;;;;;;6.30;1.70;;;;;;;21.25;25.58;101831.56;16118157;19;129235;-38
2023/04/27 11:26:55;;;;;;;3.35;1.20;;;;;;;21.27;25.79;101829.38;16118347;19;130794;-37
2023/04/27 11:32:21;;;;;;;2.35;1.10;;;;;;;21.44;25.55;101829.47;16122859;19;131815;-38
2023/04/27 11:37:43;;;;;;;2.25;1.20;;;;;;;21.64;25.70;101818.81;16118616;19;130465;-48
2023/04/27 11:43:05;;;;;;;3.78;1.55;;;;;;;21.82;25.50;101816.97;16128096;19;129547;-37
2023/04/27 11:48:27;;;;;;;3.78;1.20;;;;;;;21.96;25.52;101823.09;16122675;19;129687;-38
2023/04/27 11:53:51;;;;;;;4.85;1.20;;;;;;;22.05;25.31;101823.56;16123221;19;130680;-37
2023/04/27 11:59:20;;;;;;;1.98;0.93;;;;;;;22.13;25.22;101815.66;16115854;19;129679;-38
2023/04/27 12:04:42;;;;;;;4.47;1.40;;;;;;;22.17;25.38;101821.56;16118399;19;129432;-38
2023/04/27 12:10:06;;;;;;;3.08;1.10;;;;;;;22.21;25.35;101817.25;16119305;19;130690;-38
2023/04/27 12:15:28;;;;;;;4.97;0.90;;;;;;;22.26;24.78;101802.53;16121940;19;129542;-38
2023/04/27 12:20:50;;;;;;;3.78;1.30;;;;;;;22.29;24.89;101788.09;16118489;19;129101;-37
2023/04/27 12:26:12;;;;;;;2.97;1.02;;;;;;;22.32;24.83;101784.81;16114346;19;131091;-38
2023/04/27 12:31:35;;;;;;;5.53;0.93;;;;;;;22.33;25.04;101786.50;16115042;19;130861;-38
2023/04/27 12:36:57;;;;;;;9.93;1.30;;;;;;;22.28;25.03;101778.88;16126292;19;130901;-38
2023/04/27 12:42:22;;;;;;;10.00;1.10;;;;;;;22.15;25.06;101781.13;16130314;19;129781;-38
2023/04/27 12:47:45;;;;;;;3.97;0.98;;;;;;;22.03;25.67;101782.00;16127772;19;131255;-38
2023/04/27 12:53:22;;;;;;;5.15;1.20;;;;;;;21.89;25.43;101769.47;16129609;19;130001;-38
2023/04/27 12:58:45;;;;;;;4.03;1.02;;;;;;;21.75;25.90;101764.19;16125799;19;129996;-38
2023/04/27 13:04:07;;;;;;;2.58;0.98;;;;;;;21.61;25.86;101757.22;16125706;19;129614;-38
2023/04/27 13:09:29;;;;;;;1.92;0.90;;;;;;;21.47;26.57;101740.75;16131154;19;130769;-40
2023/04/27 13:14:51;;;;;;;2.42;0.77;;;;;;;21.37;26.39;101746.09;16128537;19;129313;-38
2023/04/27 13:20:14;;;;;;;3.58;0.82;;;;;;;21.26;26.63;101741.41;16127205;19;129572;-38
2023/04/27 13:25:36;;;;;;;1.20;0.70;;;;;;;21.17;27.04;101747.34;16123520;19;129809;-40
2023/04/27 13:30:58;;;;;;;2.80;0.90;;;;;;;21.09;27.31;101736.59;16125882;19;130297;-38
2023/04/27 13:36:21;;;;;;;3.50;1.05;;;;;;;21.01;27.29;101725.84;16127120;19;130024;-38
2023/04/27 13:41:43;;;;;;;3.65;0.90;;;;;;;20.93;27.50;101723.41;16126191;19;130037;-38
2023/04/27 13:47:05;;;;;;;4.05;1.00;;;;;;;20.87;27.89;101706.63;16125317;19;129603;-38
2023/04/27 13:52:28;;;;;;;4.35;0.88;;;;;;;20.82;28.05;101694.53;16128289;19;130508;-38
2023/04/27 13:57:50;;;;;;;5.05;1.13;;;;;;;20.75;27.86;101684.34;16133182;19;129282;-38
2023/04/27 14:03:12;;;;;;;5.40;1.10;;;;;;;20.70;27.76;101680.59;16123958;19;131926;-38
2023/04/27 14:08:34;;;;;;;9.10;1.20;;;;;;;20.67;28.25;101664.41;16125013;19;129308;-38
2023/04/27 14:13:56;;;;;;;7.05;1.20;;;;;;;20.72;27.86;101661.72;16127360;19;129550;-38
2023/04/27 14:19:19;;;;;;;3.72;1.30;;;;;;;20.77;27.90;101655.47;16123835;19;129123;-38
2023/04/27 14:24:41;;;;;;;4.75;1.10;;;;;;;20.81;27.90;101668.63;16121033;19;129743;-38
2023/04/27 14:30:04;;;;;;;3.25;1.13;;;;;;;20.85;28.19;101655.13;16120241;19;130884;-37
2023/04/27 14:35:26;;;;;;;3.35;1.15;;;;;;;20.87;28.21;101651.00;16125927;19;131325;-38
2023/04/27 14:40:48;;;;;;;2.67;1.05;;;;;;;20.88;27.92;101655.47;16123301;19;130942;-38
2023/04/27 14:46:10;;;;;;;5.07;1.17;;;;;;;20.90;27.74;101656.06;16122110;19;129704;-38
2023/04/27 14:51:41;;;;;;;3.50;1.17;;;;;;;20.92;27.94;101658.59;16122611;19;130577;-38
2023/04/27 14:57:04;;;;;;;3.17;0.88;;;;;;;20.92;27.93;101650.25;16121292;19;130028;-38
2023/04/27 15:02:26;;;;;;;2.05;1.08;;;;;;;20.88;28.01;101644.34;16119711;19;134691;-38
2023/04/27 15:07:48;;;;;;;2.92;1.00;;;;;;;20.89;28.40;101640.47;16118956;19;130067;-37
2023/04/27 15:13:10;;;;;;;2.63;1.27;;;;;;;20.90;28.63;101635.75;16119131;19;129669;-38
2023/04/27 15:18:32;;;;;;;3.50;1.13;;;;;;;20.91;28.71;101631.88;16120529;19;130657;-37
2023/04/27 15:23:54;;;;;;;8.25;1.55;;;;;;;20.93;28.43;101618.56;16123521;19;129464;-38
2023/04/27 15:29:16;;;;;;;4.85;1.10;;;;;;;20.94;29.05;101608.28;16117567;19;131088;-38
2023/04/27 15:34:41;;;;;;;5.22;1.20;;;;;;;20.95;29.02;101593.28;16121356;19;129648;-38
2023/04/27 15:40:06;;;;;;;4.07;1.20;;;;;;;20.98;29.46;101595.56;16119365;19;130419;-38
2023/04/27 15:45:28;;;;;;;1.63;1.00;;;;;;;21.10;29.79;101596.38;16111729;19;131446;-38
2023/04/27 15:50:50;;;;;;;6.00;1.20;;;;;;;21.33;29.43;101591.81;16117767;19;131247;-38
2023/04/27 15:56:12;;;;;;;2.13;0.85;;;;;;;21.53;29.45;101571.91;16114942;19;131077;-38
2023/04/27 16:01:34;;;;;;;5.55;0.80;;;;;;;21.74;29.35;101573.13;16118585;19;129839;-38
2023/04/27 16:06:56;;;;;;;1.63;0.82;;;;;;;21.88;29.86;101556.91;16111518;19;130448;-38
2023/04/27 16:12:18;;;;;;;1.95;0.90;;;;;;;21.99;29.63;101541.22;16109433;19;129549;-38
2023/04/27 16:17:40;;;;;;;3.45;1.35;;;;;;;22.05;30.04;101544.94;16114092;19;131894;-38
2023/04/27 16:23:02;;;;;;;4.18;0.80;;;;;;;22.08;29.58;101542.47;16110786;19;130354;-38
2023/04/27 16:28:24;;;;;;;2.03;0.80;;;;;;;22.13;29.85;101537.00;16112708;19;130924;-38
2023/04/27 16:33:47;;;;;;;4.32;1.00;;;;;;;22.18;29.88;101515.84;16113332;19;133651;-38
2023/04/27 16:39:09;;;;;;;2.25;0.70;;;;;;;22.19;30.28;101515.59;16112498;19;129666;-38
2023/04/27 16:44:31;;;;;;;2.05;0.90;;;;;;;22.15;30.38;101525.56;16111329;19;135033;-38
2023/04/27 16:49:53;;;;;;;2.08;1.20;;;;;;;22.03;30.02;101520.09;16111949;19;131347;-38
2023/04/27 16:55:15;;;;;;;7.15;1.33;;;;;;;21.92;30.55;101504.31;16108343;19;131209;-38
2023/04/27 17:00:39;;;;;;;3.47;0.90;;;;;;;21.76;30.82;101506.88;16108475;19;129760;-38
2023/04/27 17:06:01;;;;;;;1.60;0.90;;;;;;;21.62;31.15;101497.16;16114726;19;131335;-38
2023/04/27 17:11:23;;;;;;;2.60;1.02;;;;;;;21.49;31.87;101493.63;16113941;19;129604;-48
2023/04/27 17:16:45;;;;;;;1.88;0.90;;;;;;;21.37;32.14;101490.88;16114744;19;130050;-38
2023/04/27 17:22:10;;;;;;;4.32;0.98;;;;;;;21.29;32.19;101484.91;16122958;19;129563;-46
2023/04/27 17:27:31;;;;;;;3.23;0.80;;;;;;;21.18;32.28;101486.63;16130279;19;129456;-48
2023/04/27 17:32:53;;;;;;;0.95;0.60;;;;;;;21.09;33.03;101496.50;16121161;19;133735;-38
2023/04/27 17:38:15;;;;;;;4.50;1.50;;;;;;;21.00;32.75;101491.31;16048067;19;141082;-38
2023/04/27 17:43:37;;;;;;;4.20;1.15;;;;;;;20.92;32.88;101491.72;16120536;19;129700;-38
2023/04/27 17:48:59;;;;;;;3.17;1.08;;;;;;;20.86;33.34;101474.09;16117117;19;131044;-38
2023/04/27 17:54:21;;;;;;;6.95;1.95;;;;;;;20.77;32.85;101470.03;16121942;19;130409;-38
2023/04/27 17:59:44;;;;;;;8.43;2.00;;;;;;;20.69;32.31;101462.88;16123200;19;131065;-40
2023/04/27 18:05:06;;;;;;;8.38;2.20;;;;;;;20.60;33.06;101484.66;16123257;19;133093;-39
2023/04/27 18:10:28;;;;;;;9.88;2.70;;;;;;;20.59;34.50;101491.31;16119499;19;130042;-38
2023/04/27 18:15:50;;;;;;;9.75;2.05;;;;;;;20.63;34.99;101493.59;16116121;19;130092;-37
2023/04/27 18:21:12;;;;;;;13.35;1.77;;;;;;;20.70;35.80;101488.75;16115419;19;130039;-37
2023/04/27 18:26:35;;;;;;;3.95;1.63;;;;;;;20.80;36.75;101491.75;16117421;19;129562;-38
2023/04/27 18:32:00;;;;;;;7.47;1.70;;;;;;;20.89;37.09;101490.28;16116766;19;133459;-37
2023/04/27 18:37:22;;;;;;;10.40;1.33;;;;;;;20.93;37.03;101498.97;16116072;19;129358;-37
2023/04/27 18:42:44;;;;;;;14.50;2.15;;;;;;;20.94;36.92;101497.03;16119797;19;129475;-38
2023/04/27 18:48:05;;;;;;;7.35;2.03;;;;;;;20.97;37.26;101488.19;16121331;19;130214;-38
2023/04/27 18:53:27;;;;;;;4.15;1.95;;;;;;;21.02;37.14;101479.94;16121532;19;131043;-38
2023/04/27 18:58:49;;;;;;;7.65;1.95;;;;;;;21.06;36.89;101468.06;16116088;19;130489;-38
2023/04/27 19:04:11;;;;;;;8.93;2.20;;;;;;;21.07;35.66;101480.03;16115005;19;129726;-39
2023/04/27 19:09:34;;;;;;;15.07;2.60;;;;;;;21.06;36.02;101475.56;16120775;19;129636;-39
2023/04/27 19:14:55;;;;;;;13.68;1.90;;;;;;;21.11;36.67;101470.09;16114857;19;129271;-39
2023/04/27 19:20:17;;;;;;;6.13;2.15;;;;;;;21.15;36.92;101471.31;16113753;19;129536;-39
2023/04/27 19:25:39;;;;;;;11.40;1.75;;;;;;;21.22;37.42;101477.53;16115551;19;130650;-39
2023/04/27 19:31:01;;;;;;;3.75;1.40;;;;;;;21.27;37.36;101465.66;16114647;19;130698;-36
2023/04/27 19:36:24;;;;;;;10.18;2.08;;;;;;;21.29;37.96;101465.41;16118722;19;129574;-38
2023/04/27 19:41:46;;;;;;;10.50;1.63;;;;;;;21.29;37.74;101462.63;16111783;19;130731;-38
2023/04/27 19:47:11;;;;;;;8.43;1.63;;;;;;;21.26;37.95;101454.78;16112223;19;131949;-38
2023/04/27 19:52:33;;;;;;;10.13;1.37;;;;;;;21.27;38.45;101453.69;16117677;19;129814;-38
2023/04/27 19:57:55;;;;;;;17.45;2.08;;;;;;;21.29;38.74;101459.84;16116644;19;130615;-38
2023/04/27 20:03:17;;;;;;;9.90;1.67;;;;;;;21.33;38.74;101459.09;16114485;19;129838;-38
2023/04/27 20:08:39;;;;;;;5.05;1.63;;;;;;;21.39;38.81;101443.31;16112161;19;131345;-38
2023/04/27 20:14:01;;;;;;;8.52;1.10;;;;;;;21.44;38.97;101440.59;16111083;19;131364;-37
2023/04/27 20:19:23;;;;;;;12.80;1.55;;;;;;;21.46;39.10;101441.19;16111281;19;129834;-38
2023/04/27 20:24:45;;;;;;;10.77;1.27;;;;;;;21.47;39.18;101428.97;16113162;19;130508;-38
2023/04/27 20:30:08;;;;;;;31.67;2.58;;;;;;;21.46;38.79;101421.72;16107146;19;130209;-38
2023/04/27 20:35:30;;;;;;;16.60;1.73;;;;;;;21.43;39.22;101410.25;16111894;19;131500;-39
2023/04/27 20:40:52;;;;;;;19.10;2.20;;;;;;;21.37;38.89;101401.81;16110521;19;130627;-39
2023/04/27 20:46:14;;;;;;;25.40;2.55;;;;;;;21.34;39.13;101391.22;16111267;19;129837;-39
2023/04/27 20:51:35;;;;;;;47.20;3.95;;;;;;;21.34;39.12;101388.41;16114155;19;130289;-38
2023/04/27 20:57:00;;;;;;;19.90;3.17;;;;;;;21.36;38.76;101388.16;16118114;19;130699;-39
2023/04/27 21:02:22;;;;;;;23.70;3.40;;;;;;;21.31;39.08;101375.00;16126478;19;129701;-38
2023/04/27 21:07:44;;;;;;;37.90;3.50;;;;;;;21.29;39.25;101359.66;16124653;19;130080;-38
2023/04/27 21:13:07;;;;;;;34.45;3.72;;;;;;;21.25;39.11;101358.47;16121136;19;131410;-38
2023/04/27 21:18:29;;;;;;;29.60;3.50;;;;;;;21.21;39.24;101342.28;16124236;19;129493;-38
2023/04/27 21:23:51;;;;;;;23.67;3.03;;;;;;;21.13;38.19;101348.28;16117840;19;134123;-38
2023/04/27 21:29:27;;;;;;;22.90;2.95;;;;;;;21.01;37.58;101342.78;16119614;19;132332;-37
2023/04/27 21:34:49;;;;;;;21.33;2.90;;;;;;;20.95;37.69;101348.53;16117725;19;130308;-39
2023/04/27 21:40:11;;;;;;;18.17;3.10;;;;;;;20.88;37.63;101332.00;16119917;19;130238;-38
2023/04/27 21:45:33;;;;;;;18.95;3.35;;;;;;;20.84;37.27;101326.09;16122439;19;131033;-38
2023/04/27 21:50:55;;;;;;;17.00;2.65;;;;;;;20.80;37.39;101311.00;16118106;19;130894;-38
2023/04/27 21:56:16;;;;;;;11.77;2.22;;;;;;;20.77;37.28;101314.31;16125880;19;130565;-48
2023/04/27 22:01:38;;;;;;;15.23;2.75;;;;;;;20.72;37.46;101303.06;16122654;19;129568;-38
2023/04/27 22:07:01;;;;;;;11.15;2.35;;;;;;;20.69;37.38;101289.66;16118647;19;130552;-38
2023/04/27 22:12:23;;;;;;;17.75;2.25;;;;;;;20.66;37.74;101287.41;16121688;19;129461;-38
2023/04/27 22:17:44;;;;;;;11.73;1.90;;;;;;;20.60;37.34;101276.19;16122117;19;130469;-37
2023/04/27 22:23:08;;;;;;;13.02;2.40;;;;;;;20.56;37.26;101263.88;16114131;19;132012;-39
2023/04/27 22:28:29;;;;;;;6.90;2.28;;;;;;;20.52;37.23;101259.06;16121167;19;130840;-39
2023/04/27 22:33:51;;;;;;;12.60;2.13;;;;;;;20.48;37.30;101255.94;16118063;19;130304;-39
2023/04/27 22:39:13;;;;;;;8.38;1.60;;;;;;;20.44;37.50;101260.31;16123494;19;129583;-38
2023/04/27 22:44:35;;;;;;;8.95;1.90;;;;;;;20.41;37.59;101250.56;16116841;19;130142;-38
2023/04/27 22:49:57;;;;;;;6.40;1.85;;;;;;;20.38;37.27;101239.09;16116829;19;130673;-38
2023/04/27 22:55:20;;;;;;;14.45;2.28;;;;;;;20.35;37.39;101236.81;16118457;19;129637;-38
2023/04/27 23:00:41;;;;;;;5.95;1.95;;;;;;;20.32;37.32;101223.41;16135984;19;129221;-47
2023/04/27 23:06:04;;;;;;;8.38;3.03;;;;;;;20.28;36.77;101232.28;16137061;19;129501;-47
2023/04/27 23:11:26;;;;;;;6.85;2.10;;;;;;;20.24;37.11;101217.19;16120364;19;130536;-47
2023/04/27 23:16:48;;;;;;;9.05;2.60;;;;;;;20.21;36.75;101212.13;16120769;19;130851;-47
2023/04/27 23:22:10;;;;;;;7.07;2.20;;;;;;;20.19;36.82;101213.47;16116502;19;129681;-47
2023/04/27 23:27:32;;;;;;;7.18;2.50;;;;;;;20.16;36.78;101211.19;16110657;19;129283;-48
2023/04/27 23:32:54;;;;;;;4.57;2.05;;;;;;;20.12;36.62;101197.78;16116796;19;131079;-48
2023/04/27 23:38:16;;;;;;;4.85;2.10;;;;;;;20.12;36.41;101192.25;16115834;19;130071;-47
2023/04/27 23:43:38;;;;;;;6.85;2.28;;;;;;;20.09;36.66;101180.78;16119300;19;130713;-48
2023/04/27 23:49:00;;;;;;;6.43;2.97;;;;;;;20.07;36.72;101194.94;16115509;19;129845;-47
2023/04/27 23:54:22;;;;;;;4.32;1.95;;;;;;;20.05;36.70;101183.25;16110725;19;129495;-39
2023/04/27 23:59:44;;;;;;;4.57;1.83;;;;;;;20.03;36.90;101176.25;16114489;19;130162;-40
